sensor_id;sensor_type;location;lat;lon;timestamp;P1;durP1;ratioP1;P2;durP2;ratioP2
12348;SDS011;5974;42.710;27.258;2023-11-22T00:00:45;7.23;;;6.50;;
12348;SDS011;5974;42.710;27.258;2023-11-22T00:03:12;7.20;;;6.40;;
12348;SDS011;5974;42.710;27.258;2023-11-22T00:05:39;7.67;;;6.87;;
12348;SDS011;5974;42.710;27.258;2023-11-22T00:08:07;7.37;;;6.67;;
12348;SDS011;5974;42.710;27.258;2023-11-22T00:10:34;9.83;;;7.13;;
12348;SDS011;5974;42.710;27.258;2023-11-22T00:13:01;7.37;;;6.67;;
12348;SDS011;5974;42.710;27.258;2023-11-22T00:15:27;9.73;;;6.83;;
12348;SDS011;5974;42.710;27.258;2023-11-22T00:17:54;8.63;;;7.53;;
12348;SDS011;5974;42.710;27.258;2023-11-22T00:20:22;7.70;;;6.97;;
12348;SDS011;5974;42.710;27.258;2023-11-22T00:22:51;8.87;;;7.40;;
12348;SDS011;5974;42.710;27.258;2023-11-22T00:25:19;7.93;;;6.73;;
12348;SDS011;5974;42.710;27.258;2023-11-22T00:27:46;11.37;;;7.40;;
12348;SDS011;5974;42.710;27.258;2023-11-22T00:30:13;8.87;;;7.17;;
12348;SDS011;5974;42.710;27.258;2023-11-22T00:32:40;10.47;;;8.03;;
12348;SDS011;5974;42.710;27.258;2023-11-22T00:35:07;11.47;;;8.90;;
12348;SDS011;5974;42.710;27.258;2023-11-22T00:37:34;12.63;;;10.83;;
12348;SDS011;5974;42.710;27.258;2023-11-22T00:40:01;14.07;;;10.60;;
12348;SDS011;5974;42.710;27.258;2023-11-22T00:42:37;13.77;;;10.50;;
12348;SDS011;5974;42.710;27.258;2023-11-22T00:45:05;13.67;;;11.40;;
12348;SDS011;5974;42.710;27.258;2023-11-22T00:47:33;15.43;;;11.60;;
12348;SDS011;5974;42.710;27.258;2023-11-22T00:50:00;15.37;;;11.17;;
12348;SDS011;5974;42.710;27.258;2023-11-22T00:52:29;13.10;;;11.33;;
12348;SDS011;5974;42.710;27.258;2023-11-22T00:54:56;14.27;;;12.00;;
12348;SDS011;5974;42.710;27.258;2023-11-22T00:57:23;17.40;;;13.43;;
12348;SDS011;5974;42.710;27.258;2023-11-22T00:59:53;21.67;;;14.97;;
12348;SDS011;5974;42.710;27.258;2023-11-22T01:02:20;17.00;;;13.77;;
12348;SDS011;5974;42.710;27.258;2023-11-22T01:04:47;17.83;;;13.20;;
12348;SDS011;5974;42.710;27.258;2023-11-22T01:07:13;16.17;;;12.67;;
12348;SDS011;5974;42.710;27.258;2023-11-22T01:09:41;15.83;;;12.33;;
12348;SDS011;5974;42.710;27.258;2023-11-22T01:12:08;15.20;;;12.47;;
12348;SDS011;5974;42.710;27.258;2023-11-22T01:14:34;16.27;;;11.77;;
12348;SDS011;5974;42.710;27.258;2023-11-22T01:17:03;17.33;;;12.23;;
12348;SDS011;5974;42.710;27.258;2023-11-22T01:19:30;14.57;;;12.13;;
12348;SDS011;5974;42.710;27.258;2023-11-22T01:21:57;14.47;;;12.97;;
12348;SDS011;5974;42.710;27.258;2023-11-22T01:24:23;16.30;;;12.60;;
12348;SDS011;5974;42.710;27.258;2023-11-22T01:26:51;17.83;;;12.80;;
12348;SDS011;5974;42.710;27.258;2023-11-22T01:29:18;17.47;;;12.43;;
12348;SDS011;5974;42.710;27.258;2023-11-22T01:31:44;17.53;;;13.27;;
12348;SDS011;5974;42.710;27.258;2023-11-22T01:34:12;18.63;;;13.77;;
12348;SDS011;5974;42.710;27.258;2023-11-22T01:36:41;17.97;;;14.23;;
12348;SDS011;5974;42.710;27.258;2023-11-22T01:39:10;18.63;;;13.23;;
12348;SDS011;5974;42.710;27.258;2023-11-22T01:41:38;15.60;;;13.20;;
12348;SDS011;5974;42.710;27.258;2023-11-22T01:44:07;18.43;;;16.43;;
12348;SDS011;5974;42.710;27.258;2023-11-22T01:46:34;19.67;;;14.17;;
12348;SDS011;5974;42.710;27.258;2023-11-22T01:49:01;15.87;;;12.73;;
12348;SDS011;5974;42.710;27.258;2023-11-22T01:51:29;18.30;;;14.43;;
12348;SDS011;5974;42.710;27.258;2023-11-22T01:53:57;13.40;;;11.93;;
12348;SDS011;5974;42.710;27.258;2023-11-22T01:56:25;14.57;;;11.60;;
12348;SDS011;5974;42.710;27.258;2023-11-22T01:58:53;14.97;;;11.20;;
12348;SDS011;5974;42.710;27.258;2023-11-22T02:01:22;12.63;;;9.63;;
12348;SDS011;5974;42.710;27.258;2023-11-22T02:03:50;10.83;;;9.70;;
12348;SDS011;5974;42.710;27.258;2023-11-22T02:06:18;13.83;;;11.00;;
12348;SDS011;5974;42.710;27.258;2023-11-22T02:08:48;13.37;;;10.00;;
12348;SDS011;5974;42.710;27.258;2023-11-22T02:11:16;12.23;;;8.83;;
12348;SDS011;5974;42.710;27.258;2023-11-22T02:13:47;11.77;;;8.53;;
12348;SDS011;5974;42.710;27.258;2023-11-22T02:16:14;10.77;;;8.47;;
12348;SDS011;5974;42.710;27.258;2023-11-22T02:18:40;9.97;;;8.47;;
12348;SDS011;5974;42.710;27.258;2023-11-22T02:21:09;9.40;;;7.70;;
12348;SDS011;5974;42.710;27.258;2023-11-22T02:23:37;13.30;;;8.63;;
12348;SDS011;5974;42.710;27.258;2023-11-22T02:26:04;8.80;;;7.90;;
12348;SDS011;5974;42.710;27.258;2023-11-22T02:28:31;8.50;;;7.20;;
12348;SDS011;5974;42.710;27.258;2023-11-22T02:30:58;9.53;;;7.67;;
12348;SDS011;5974;42.710;27.258;2023-11-22T02:33:24;13.00;;;7.73;;
12348;SDS011;5974;42.710;27.258;2023-11-22T02:35:52;8.63;;;6.90;;
12348;SDS011;5974;42.710;27.258;2023-11-22T02:38:19;8.47;;;7.00;;
12348;SDS011;5974;42.710;27.258;2023-11-22T02:40:48;12.33;;;7.10;;
12348;SDS011;5974;42.710;27.258;2023-11-22T02:43:15;7.37;;;6.40;;
12348;SDS011;5974;42.710;27.258;2023-11-22T02:45:42;7.57;;;6.83;;
12348;SDS011;5974;42.710;27.258;2023-11-22T02:48:09;8.63;;;7.03;;
12348;SDS011;5974;42.710;27.258;2023-11-22T02:50:36;9.43;;;6.83;;
12348;SDS011;5974;42.710;27.258;2023-11-22T02:53:04;9.97;;;6.73;;
12348;SDS011;5974;42.710;27.258;2023-11-22T02:55:32;8.77;;;6.00;;
12348;SDS011;5974;42.710;27.258;2023-11-22T02:58:00;6.47;;;5.67;;
12348;SDS011;5974;42.710;27.258;2023-11-22T03:00:27;6.60;;;5.70;;
12348;SDS011;5974;42.710;27.258;2023-11-22T03:02:55;7.03;;;5.30;;
12348;SDS011;5974;42.710;27.258;2023-11-22T03:05:22;7.70;;;5.30;;
12348;SDS011;5974;42.710;27.258;2023-11-22T03:07:49;6.77;;;5.00;;
12348;SDS011;5974;42.710;27.258;2023-11-22T03:10:16;5.33;;;4.83;;
12348;SDS011;5974;42.710;27.258;2023-11-22T03:12:44;5.63;;;4.97;;
12348;SDS011;5974;42.710;27.258;2023-11-22T03:15:12;5.83;;;4.87;;
12348;SDS011;5974;42.710;27.258;2023-11-22T03:17:39;7.20;;;5.70;;
12348;SDS011;5974;42.710;27.258;2023-11-22T03:20:06;6.63;;;5.47;;
12348;SDS011;5974;42.710;27.258;2023-11-22T03:22:36;5.77;;;4.93;;
12348;SDS011;5974;42.710;27.258;2023-11-22T03:25:04;8.67;;;5.73;;
12348;SDS011;5974;42.710;27.258;2023-11-22T03:27:32;8.53;;;6.30;;
12348;SDS011;5974;42.710;27.258;2023-11-22T03:29:59;6.30;;;5.70;;
12348;SDS011;5974;42.710;27.258;2023-11-22T03:32:27;7.97;;;6.33;;
12348;SDS011;5974;42.710;27.258;2023-11-22T03:34:54;6.63;;;5.87;;
12348;SDS011;5974;42.710;27.258;2023-11-22T03:37:22;7.37;;;5.33;;
12348;SDS011;5974;42.710;27.258;2023-11-22T03:39:49;9.40;;;6.10;;
12348;SDS011;5974;42.710;27.258;2023-11-22T03:42:16;8.40;;;5.80;;
12348;SDS011;5974;42.710;27.258;2023-11-22T03:44:43;7.67;;;5.03;;
12348;SDS011;5974;42.710;27.258;2023-11-22T03:47:10;7.70;;;5.67;;
12348;SDS011;5974;42.710;27.258;2023-11-22T03:49:40;10.10;;;5.47;;
12348;SDS011;5974;42.710;27.258;2023-11-22T03:52:08;6.10;;;5.50;;
12348;SDS011;5974;42.710;27.258;2023-11-22T03:54:36;5.57;;;5.03;;
12348;SDS011;5974;42.710;27.258;2023-11-22T03:57:04;8.60;;;5.73;;
12348;SDS011;5974;42.710;27.258;2023-11-22T03:59:31;6.60;;;5.90;;
12348;SDS011;5974;42.710;27.258;2023-11-22T04:02:00;7.77;;;5.90;;
12348;SDS011;5974;42.710;27.258;2023-11-22T04:04:27;6.73;;;5.67;;
12348;SDS011;5974;42.710;27.258;2023-11-22T04:06:56;6.97;;;5.67;;
12348;SDS011;5974;42.710;27.258;2023-11-22T04:09:23;7.07;;;6.30;;
12348;SDS011;5974;42.710;27.258;2023-11-22T04:11:50;7.40;;;5.90;;
12348;SDS011;5974;42.710;27.258;2023-11-22T04:14:17;6.00;;;5.40;;
12348;SDS011;5974;42.710;27.258;2023-11-22T04:16:45;6.93;;;5.73;;
12348;SDS011;5974;42.710;27.258;2023-11-22T04:19:12;9.03;;;6.30;;
12348;SDS011;5974;42.710;27.258;2023-11-22T04:21:39;7.00;;;5.50;;
12348;SDS011;5974;42.710;27.258;2023-11-22T04:24:08;8.43;;;6.13;;
12348;SDS011;5974;42.710;27.258;2023-11-22T04:26:37;6.53;;;5.83;;
12348;SDS011;5974;42.710;27.258;2023-11-22T04:29:04;8.93;;;6.10;;
12348;SDS011;5974;42.710;27.258;2023-11-22T04:31:31;7.80;;;6.00;;
12348;SDS011;5974;42.710;27.258;2023-11-22T04:33:58;8.03;;;6.73;;
12348;SDS011;5974;42.710;27.258;2023-11-22T04:36:25;10.53;;;6.43;;
12348;SDS011;5974;42.710;27.258;2023-11-22T04:38:52;12.13;;;6.53;;
12348;SDS011;5974;42.710;27.258;2023-11-22T04:41:20;10.17;;;6.63;;
12348;SDS011;5974;42.710;27.258;2023-11-22T04:43:47;8.30;;;6.77;;
12348;SDS011;5974;42.710;27.258;2023-11-22T04:46:14;8.63;;;6.90;;
12348;SDS011;5974;42.710;27.258;2023-11-22T04:48:41;7.00;;;6.30;;
12348;SDS011;5974;42.710;27.258;2023-11-22T04:51:10;9.00;;;6.90;;
12348;SDS011;5974;42.710;27.258;2023-11-22T04:53:37;10.87;;;6.63;;
12348;SDS011;5974;42.710;27.258;2023-11-22T04:56:04;8.73;;;6.70;;
12348;SDS011;5974;42.710;27.258;2023-11-22T04:58:33;8.87;;;6.53;;
12348;SDS011;5974;42.710;27.258;2023-11-22T05:01:00;10.50;;;6.90;;
12348;SDS011;5974;42.710;27.258;2023-11-22T05:03:27;7.77;;;6.37;;
12348;SDS011;5974;42.710;27.258;2023-11-22T05:05:54;10.47;;;6.73;;
12348;SDS011;5974;42.710;27.258;2023-11-22T05:08:21;8.37;;;6.20;;
12348;SDS011;5974;42.710;27.258;2023-11-22T05:10:48;10.20;;;6.53;;
12348;SDS011;5974;42.710;27.258;2023-11-22T05:13:15;10.23;;;6.97;;
12348;SDS011;5974;42.710;27.258;2023-11-22T05:15:43;11.57;;;6.57;;
12348;SDS011;5974;42.710;27.258;2023-11-22T05:18:10;13.00;;;6.50;;
12348;SDS011;5974;42.710;27.258;2023-11-22T05:20:37;8.90;;;7.10;;
12348;SDS011;5974;42.710;27.258;2023-11-22T05:23:03;8.67;;;6.77;;
12348;SDS011;5974;42.710;27.258;2023-11-22T05:25:30;8.97;;;6.90;;
12348;SDS011;5974;42.710;27.258;2023-11-22T05:27:57;11.63;;;7.50;;
12348;SDS011;5974;42.710;27.258;2023-11-22T05:30:25;10.30;;;7.80;;
12348;SDS011;5974;42.710;27.258;2023-11-22T05:32:54;11.87;;;7.60;;
12348;SDS011;5974;42.710;27.258;2023-11-22T05:35:21;12.83;;;7.20;;
12348;SDS011;5974;42.710;27.258;2023-11-22T05:37:48;8.90;;;7.53;;
12348;SDS011;5974;42.710;27.258;2023-11-22T05:40:15;10.70;;;6.77;;
12348;SDS011;5974;42.710;27.258;2023-11-22T05:42:42;7.77;;;6.80;;
12348;SDS011;5974;42.710;27.258;2023-11-22T05:45:09;9.63;;;7.40;;
12348;SDS011;5974;42.710;27.258;2023-11-22T05:47:36;12.17;;;7.20;;
12348;SDS011;5974;42.710;27.258;2023-11-22T05:50:05;10.60;;;8.20;;
12348;SDS011;5974;42.710;27.258;2023-11-22T05:52:33;10.83;;;7.43;;
12348;SDS011;5974;42.710;27.258;2023-11-22T05:55:00;25.03;;;11.23;;
12348;SDS011;5974;42.710;27.258;2023-11-22T05:57:29;13.57;;;9.17;;
12348;SDS011;5974;42.710;27.258;2023-11-22T05:59:56;11.60;;;7.63;;
12348;SDS011;5974;42.710;27.258;2023-11-22T06:02:23;12.17;;;7.60;;
12348;SDS011;5974;42.710;27.258;2023-11-22T06:04:50;13.37;;;8.10;;
12348;SDS011;5974;42.710;27.258;2023-11-22T06:07:18;8.60;;;7.43;;
12348;SDS011;5974;42.710;27.258;2023-11-22T06:09:45;16.57;;;7.23;;
12348;SDS011;5974;42.710;27.258;2023-11-22T06:12:12;19.23;;;17.17;;
12348;SDS011;5974;42.710;27.258;2023-11-22T06:14:39;9.63;;;7.20;;
12348;SDS011;5974;42.710;27.258;2023-11-22T06:17:06;8.10;;;6.50;;
12348;SDS011;5974;42.710;27.258;2023-11-22T06:19:33;7.77;;;6.50;;
12348;SDS011;5974;42.710;27.258;2023-11-22T06:22:00;8.47;;;6.17;;
12348;SDS011;5974;42.710;27.258;2023-11-22T06:24:29;7.30;;;6.60;;
12348;SDS011;5974;42.710;27.258;2023-11-22T06:26:56;7.93;;;7.13;;
12348;SDS011;5974;42.710;27.258;2023-11-22T06:29:23;21.33;;;17.47;;
12348;SDS011;5974;42.710;27.258;2023-11-22T06:31:50;17.90;;;15.37;;
12348;SDS011;5974;42.710;27.258;2023-11-22T06:34:16;10.07;;;7.97;;
12348;SDS011;5974;42.710;27.258;2023-11-22T06:36:43;11.80;;;8.63;;
12348;SDS011;5974;42.710;27.258;2023-11-22T06:39:10;10.27;;;7.13;;
12348;SDS011;5974;42.710;27.258;2023-11-22T06:41:40;9.07;;;7.27;;
12348;SDS011;5974;42.710;27.258;2023-11-22T06:44:07;14.60;;;7.00;;
12348;SDS011;5974;42.710;27.258;2023-11-22T06:46:35;12.63;;;7.23;;
12348;SDS011;5974;42.710;27.258;2023-11-22T06:49:02;9.63;;;7.00;;
12348;SDS011;5974;42.710;27.258;2023-11-22T06:51:30;16.77;;;8.70;;
12348;SDS011;5974;42.710;27.258;2023-11-22T06:53:57;14.23;;;8.60;;
12348;SDS011;5974;42.710;27.258;2023-11-22T06:56:23;11.37;;;8.67;;
12348;SDS011;5974;42.710;27.258;2023-11-22T06:58:52;18.30;;;10.20;;
12348;SDS011;5974;42.710;27.258;2023-11-22T07:01:22;19.73;;;11.90;;
12348;SDS011;5974;42.710;27.258;2023-11-22T07:03:50;12.53;;;9.77;;
12348;SDS011;5974;42.710;27.258;2023-11-22T07:06:18;50.17;;;31.03;;
12348;SDS011;5974;42.710;27.258;2023-11-22T07:08:47;68.87;;;44.97;;
12348;SDS011;5974;42.710;27.258;2023-11-22T07:11:20;78.23;;;49.20;;
12348;SDS011;5974;42.710;27.258;2023-11-22T07:13:48;89.23;;;65.43;;
12348;SDS011;5974;42.710;27.258;2023-11-22T07:16:16;91.97;;;61.10;;
12348;SDS011;5974;42.710;27.258;2023-11-22T07:18:44;84.23;;;61.30;;
12348;SDS011;5974;42.710;27.258;2023-11-22T07:21:11;66.33;;;49.97;;
12348;SDS011;5974;42.710;27.258;2023-11-22T07:23:38;63.57;;;47.70;;
12348;SDS011;5974;42.710;27.258;2023-11-22T07:26:05;68.57;;;46.83;;
12348;SDS011;5974;42.710;27.258;2023-11-22T07:28:32;69.50;;;45.53;;
12348;SDS011;5974;42.710;27.258;2023-11-22T07:31:00;69.93;;;48.27;;
12348;SDS011;5974;42.710;27.258;2023-11-22T07:33:32;54.87;;;41.30;;
12348;SDS011;5974;42.710;27.258;2023-11-22T07:35:59;46.53;;;35.80;;
12348;SDS011;5974;42.710;27.258;2023-11-22T07:38:26;33.03;;;25.83;;
12348;SDS011;5974;42.710;27.258;2023-11-22T07:40:54;32.50;;;22.00;;
12348;SDS011;5974;42.710;27.258;2023-11-22T07:43:21;28.30;;;23.90;;
12348;SDS011;5974;42.710;27.258;2023-11-22T07:45:48;31.47;;;24.30;;
12348;SDS011;5974;42.710;27.258;2023-11-22T07:48:16;35.43;;;24.73;;
12348;SDS011;5974;42.710;27.258;2023-11-22T07:50:44;32.30;;;22.93;;
12348;SDS011;5974;42.710;27.258;2023-11-22T07:53:14;48.93;;;35.30;;
12348;SDS011;5974;42.710;27.258;2023-11-22T07:55:42;47.60;;;36.03;;
12348;SDS011;5974;42.710;27.258;2023-11-22T07:58:09;56.83;;;42.73;;
12348;SDS011;5974;42.710;27.258;2023-11-22T08:00:36;122.57;;;71.60;;
12348;SDS011;5974;42.710;27.258;2023-11-22T08:03:03;49.93;;;34.23;;
12348;SDS011;5974;42.710;27.258;2023-11-22T08:05:31;37.80;;;27.37;;
12348;SDS011;5974;42.710;27.258;2023-11-22T08:08:03;36.60;;;22.33;;
12348;SDS011;5974;42.710;27.258;2023-11-22T08:10:33;26.27;;;18.70;;
12348;SDS011;5974;42.710;27.258;2023-11-22T08:13:00;19.60;;;15.03;;
12348;SDS011;5974;42.710;27.258;2023-11-22T08:15:28;29.77;;;18.13;;
12348;SDS011;5974;42.710;27.258;2023-11-22T08:17:56;22.03;;;17.93;;
12348;SDS011;5974;42.710;27.258;2023-11-22T08:20:24;23.67;;;17.07;;
12348;SDS011;5974;42.710;27.258;2023-11-22T08:22:50;25.00;;;17.17;;
12348;SDS011;5974;42.710;27.258;2023-11-22T08:25:19;27.47;;;21.00;;
12348;SDS011;5974;42.710;27.258;2023-11-22T08:27:45;24.40;;;19.13;;
12348;SDS011;5974;42.710;27.258;2023-11-22T08:30:12;29.77;;;23.77;;
12348;SDS011;5974;42.710;27.258;2023-11-22T08:32:40;45.03;;;30.73;;
12348;SDS011;5974;42.710;27.258;2023-11-22T08:35:09;27.13;;;18.73;;
12348;SDS011;5974;42.710;27.258;2023-11-22T08:37:36;34.03;;;23.20;;
12348;SDS011;5974;42.710;27.258;2023-11-22T08:40:07;26.93;;;20.80;;
12348;SDS011;5974;42.710;27.258;2023-11-22T08:42:37;30.47;;;22.27;;
12348;SDS011;5974;42.710;27.258;2023-11-22T08:45:06;27.47;;;21.47;;
12348;SDS011;5974;42.710;27.258;2023-11-22T08:47:37;28.80;;;19.73;;
12348;SDS011;5974;42.710;27.258;2023-11-22T08:50:05;17.57;;;13.17;;
12348;SDS011;5974;42.710;27.258;2023-11-22T08:52:33;16.53;;;13.43;;
12348;SDS011;5974;42.710;27.258;2023-11-22T08:55:01;23.53;;;17.67;;
12348;SDS011;5974;42.710;27.258;2023-11-22T08:57:29;18.53;;;15.57;;
12348;SDS011;5974;42.710;27.258;2023-11-22T08:59:58;17.93;;;12.80;;
12348;SDS011;5974;42.710;27.258;2023-11-22T09:02:26;14.57;;;10.30;;
12348;SDS011;5974;42.710;27.258;2023-11-22T09:04:53;15.37;;;9.70;;
12348;SDS011;5974;42.710;27.258;2023-11-22T09:07:20;15.17;;;10.77;;
12348;SDS011;5974;42.710;27.258;2023-11-22T09:09:49;19.50;;;11.97;;
12348;SDS011;5974;42.710;27.258;2023-11-22T09:12:16;15.27;;;8.70;;
12348;SDS011;5974;42.710;27.258;2023-11-22T09:14:44;10.93;;;7.27;;
12348;SDS011;5974;42.710;27.258;2023-11-22T09:17:13;15.23;;;9.10;;
12348;SDS011;5974;42.710;27.258;2023-11-22T09:19:40;15.67;;;8.50;;
12348;SDS011;5974;42.710;27.258;2023-11-22T09:22:06;16.10;;;11.50;;
12348;SDS011;5974;42.710;27.258;2023-11-22T09:24:33;14.70;;;9.20;;
12348;SDS011;5974;42.710;27.258;2023-11-22T09:27:02;12.67;;;9.87;;
12348;SDS011;5974;42.710;27.258;2023-11-22T09:29:30;15.23;;;11.13;;
12348;SDS011;5974;42.710;27.258;2023-11-22T09:31:58;11.70;;;8.87;;
12348;SDS011;5974;42.710;27.258;2023-11-22T09:34:27;15.43;;;7.87;;
12348;SDS011;5974;42.710;27.258;2023-11-22T09:36:55;9.63;;;6.50;;
12348;SDS011;5974;42.710;27.258;2023-11-22T09:39:22;8.03;;;6.70;;
12348;SDS011;5974;42.710;27.258;2023-11-22T09:41:50;15.23;;;11.33;;
12348;SDS011;5974;42.710;27.258;2023-11-22T09:44:18;11.30;;;8.47;;
12348;SDS011;5974;42.710;27.258;2023-11-22T09:46:47;10.77;;;8.73;;
12348;SDS011;5974;42.710;27.258;2023-11-22T09:49:19;19.43;;;13.07;;
12348;SDS011;5974;42.710;27.258;2023-11-22T09:51:52;15.57;;;10.77;;
12348;SDS011;5974;42.710;27.258;2023-11-22T09:54:21;16.43;;;11.90;;
12348;SDS011;5974;42.710;27.258;2023-11-22T09:56:56;12.40;;;7.43;;
12348;SDS011;5974;42.710;27.258;2023-11-22T09:59:28;11.13;;;6.63;;
12348;SDS011;5974;42.710;27.258;2023-11-22T10:01:55;10.30;;;5.27;;
12348;SDS011;5974;42.710;27.258;2023-11-22T10:04:24;9.17;;;5.13;;
12348;SDS011;5974;42.710;27.258;2023-11-22T10:06:55;8.53;;;5.60;;
12348;SDS011;5974;42.710;27.258;2023-11-22T10:09:24;8.00;;;5.07;;
12348;SDS011;5974;42.710;27.258;2023-11-22T10:11:52;7.77;;;4.70;;
12348;SDS011;5974;42.710;27.258;2023-11-22T10:14:22;6.97;;;4.97;;
12348;SDS011;5974;42.710;27.258;2023-11-22T10:17:00;8.20;;;5.30;;
12348;SDS011;5974;42.710;27.258;2023-11-22T10:19:27;7.37;;;5.87;;
12348;SDS011;5974;42.710;27.258;2023-11-22T10:22:08;9.67;;;5.57;;
12348;SDS011;5974;42.710;27.258;2023-11-22T10:24:35;8.07;;;6.10;;
12348;SDS011;5974;42.710;27.258;2023-11-22T10:27:03;8.20;;;5.13;;
12348;SDS011;5974;42.710;27.258;2023-11-22T10:29:31;8.80;;;5.17;;
12348;SDS011;5974;42.710;27.258;2023-11-22T10:31:58;8.60;;;5.00;;
12348;SDS011;5974;42.710;27.258;2023-11-22T10:34:25;4.93;;;4.43;;
12348;SDS011;5974;42.710;27.258;2023-11-22T10:36:55;6.27;;;4.50;;
12348;SDS011;5974;42.710;27.258;2023-11-22T10:39:23;5.60;;;5.00;;
12348;SDS011;5974;42.710;27.258;2023-11-22T10:41:51;8.37;;;5.23;;
12348;SDS011;5974;42.710;27.258;2023-11-22T10:44:19;6.53;;;4.93;;
12348;SDS011;5974;42.710;27.258;2023-11-22T10:46:47;5.00;;;4.60;;
12348;SDS011;5974;42.710;27.258;2023-11-22T10:49:16;7.80;;;4.40;;
12348;SDS011;5974;42.710;27.258;2023-11-22T10:51:43;6.40;;;5.33;;
12348;SDS011;5974;42.710;27.258;2023-11-22T10:54:14;9.03;;;4.60;;
12348;SDS011;5974;42.710;27.258;2023-11-22T10:56:43;7.60;;;6.90;;
12348;SDS011;5974;42.710;27.258;2023-11-22T10:59:18;16.77;;;15.03;;
12348;SDS011;5974;42.710;27.258;2023-11-22T11:01:49;11.00;;;9.90;;
12348;SDS011;5974;42.710;27.258;2023-11-22T11:04:23;9.17;;;8.03;;
12348;SDS011;5974;42.710;27.258;2023-11-22T11:06:54;9.60;;;7.60;;
12348;SDS011;5974;42.710;27.258;2023-11-22T11:09:22;8.60;;;7.47;;
12348;SDS011;5974;42.710;27.258;2023-11-22T11:11:56;12.00;;;8.30;;
12348;SDS011;5974;42.710;27.258;2023-11-22T11:14:23;6.93;;;4.97;;
12348;SDS011;5974;42.710;27.258;2023-11-22T11:16:51;7.87;;;5.37;;
12348;SDS011;5974;42.710;27.258;2023-11-22T11:19:19;6.33;;;4.30;;
12348;SDS011;5974;42.710;27.258;2023-11-22T11:21:49;9.63;;;5.10;;
12348;SDS011;5974;42.710;27.258;2023-11-22T11:24:16;45.77;;;7.90;;
12348;SDS011;5974;42.710;27.258;2023-11-22T11:26:47;30.30;;;7.27;;
12348;SDS011;5974;42.710;27.258;2023-11-22T11:29:31;37.63;;;8.23;;
12348;SDS011;5974;42.710;27.258;2023-11-22T11:31:58;214.33;;;28.83;;
12348;SDS011;5974;42.710;27.258;2023-11-22T11:34:26;15.07;;;6.83;;
12348;SDS011;5974;42.710;27.258;2023-11-22T11:36:54;11.73;;;5.97;;
12348;SDS011;5974;42.710;27.258;2023-11-22T11:39:24;6.93;;;4.43;;
12348;SDS011;5974;42.710;27.258;2023-11-22T11:42:07;10.50;;;4.20;;
12348;SDS011;5974;42.710;27.258;2023-11-22T11:44:36;11.00;;;9.90;;
12348;SDS011;5974;42.710;27.258;2023-11-22T11:47:10;9.40;;;8.03;;
12348;SDS011;5974;42.710;27.258;2023-11-22T11:49:37;12.20;;;9.13;;
12348;SDS011;5974;42.710;27.258;2023-11-22T11:52:05;21.70;;;17.07;;
12348;SDS011;5974;42.710;27.258;2023-11-22T11:54:33;9.20;;;7.03;;
12348;SDS011;5974;42.710;27.258;2023-11-22T11:57:00;92.90;;;10.93;;
12348;SDS011;5974;42.710;27.258;2023-11-22T11:59:27;6.30;;;4.70;;
12348;SDS011;5974;42.710;27.258;2023-11-22T12:01:59;20.47;;;18.27;;
12348;SDS011;5974;42.710;27.258;2023-11-22T12:04:26;31.10;;;27.87;;
12348;SDS011;5974;42.710;27.258;2023-11-22T12:06:53;26.30;;;23.80;;
12348;SDS011;5974;42.710;27.258;2023-11-22T12:09:23;11.47;;;10.20;;
12348;SDS011;5974;42.710;27.258;2023-11-22T12:12:00;16.70;;;15.00;;
12348;SDS011;5974;42.710;27.258;2023-11-22T12:14:28;12.27;;;10.97;;
12348;SDS011;5974;42.710;27.258;2023-11-22T12:16:56;37.17;;;28.37;;
12348;SDS011;5974;42.710;27.258;2023-11-22T12:19:27;28.63;;;22.23;;
12348;SDS011;5974;42.710;27.258;2023-11-22T12:21:56;19.37;;;15.70;;
12348;SDS011;5974;42.710;27.258;2023-11-22T12:24:23;6.20;;;5.47;;
12348;SDS011;5974;42.710;27.258;2023-11-22T12:26:50;8.90;;;7.97;;
12348;SDS011;5974;42.710;27.258;2023-11-22T12:29:17;16.83;;;14.87;;
12348;SDS011;5974;42.710;27.258;2023-11-22T12:31:44;12.67;;;11.37;;
12348;SDS011;5974;42.710;27.258;2023-11-22T12:34:14;11.17;;;10.03;;
12348;SDS011;5974;42.710;27.258;2023-11-22T12:36:41;7.77;;;7.00;;
12348;SDS011;5974;42.710;27.258;2023-11-22T12:39:08;8.70;;;7.57;;
12348;SDS011;5974;42.710;27.258;2023-11-22T12:41:41;9.30;;;8.40;;
12348;SDS011;5974;42.710;27.258;2023-11-22T12:44:10;6.17;;;4.77;;
12348;SDS011;5974;42.710;27.258;2023-11-22T12:46:49;6.37;;;5.23;;
12348;SDS011;5974;42.710;27.258;2023-11-22T12:49:23;8.60;;;6.67;;
12348;SDS011;5974;42.710;27.258;2023-11-22T12:51:51;11.00;;;9.90;;
12348;SDS011;5974;42.710;27.258;2023-11-22T12:54:18;8.47;;;6.00;;
12348;SDS011;5974;42.710;27.258;2023-11-22T12:56:47;5.90;;;4.47;;
12348;SDS011;5974;42.710;27.258;2023-11-22T12:59:15;9.37;;;7.43;;
12348;SDS011;5974;42.710;27.258;2023-11-22T13:01:44;9.60;;;8.07;;
12348;SDS011;5974;42.710;27.258;2023-11-22T13:04:11;13.37;;;11.53;;
12348;SDS011;5974;42.710;27.258;2023-11-22T13:06:40;13.80;;;12.33;;
12348;SDS011;5974;42.710;27.258;2023-11-22T13:09:07;11.30;;;9.27;;
12348;SDS011;5974;42.710;27.258;2023-11-22T13:11:39;8.27;;;6.10;;
12348;SDS011;5974;42.710;27.258;2023-11-22T13:14:06;10.90;;;8.40;;
12348;SDS011;5974;42.710;27.258;2023-11-22T13:16:33;9.40;;;7.40;;
12348;SDS011;5974;42.710;27.258;2023-11-22T13:19:02;17.37;;;8.27;;
12348;SDS011;5974;42.710;27.258;2023-11-22T13:21:29;10.57;;;8.67;;
12348;SDS011;5974;42.710;27.258;2023-11-22T13:23:57;9.33;;;7.40;;
12348;SDS011;5974;42.710;27.258;2023-11-22T13:26:25;13.53;;;11.30;;
12348;SDS011;5974;42.710;27.258;2023-11-22T13:28:52;10.53;;;9.43;;
12348;SDS011;5974;42.710;27.258;2023-11-22T13:31:20;11.57;;;8.47;;
12348;SDS011;5974;42.710;27.258;2023-11-22T13:33:47;9.67;;;8.67;;
12348;SDS011;5974;42.710;27.258;2023-11-22T13:36:15;11.33;;;10.33;;
12348;SDS011;5974;42.710;27.258;2023-11-22T13:38:42;10.50;;;9.43;;
12348;SDS011;5974;42.710;27.258;2023-11-22T13:41:10;13.00;;;11.63;;
12348;SDS011;5974;42.710;27.258;2023-11-22T13:43:37;11.87;;;10.87;;
12348;SDS011;5974;42.710;27.258;2023-11-22T13:46:04;20.33;;;18.50;;
12348;SDS011;5974;42.710;27.258;2023-11-22T13:48:32;10.40;;;9.30;;
12348;SDS011;5974;42.710;27.258;2023-11-22T13:50:59;7.53;;;6.83;;
12348;SDS011;5974;42.710;27.258;2023-11-22T13:53:26;8.67;;;7.90;;
12348;SDS011;5974;42.710;27.258;2023-11-22T13:55:57;11.07;;;10.07;;
12348;SDS011;5974;42.710;27.258;2023-11-22T13:58:27;10.63;;;9.53;;
12348;SDS011;5974;42.710;27.258;2023-11-22T14:00:54;19.87;;;18.00;;
12348;SDS011;5974;42.710;27.258;2023-11-22T14:03:20;25.37;;;22.63;;
12348;SDS011;5974;42.710;27.258;2023-11-22T14:05:48;10.57;;;9.43;;
12348;SDS011;5974;42.710;27.258;2023-11-22T14:08:15;10.47;;;9.47;;
12348;SDS011;5974;42.710;27.258;2023-11-22T14:10:42;8.77;;;8.00;;
12348;SDS011;5974;42.710;27.258;2023-11-22T14:13:10;7.83;;;7.10;;
12348;SDS011;5974;42.710;27.258;2023-11-22T14:15:38;7.63;;;7.00;;
12348;SDS011;5974;42.710;27.258;2023-11-22T14:18:05;7.77;;;7.07;;
12348;SDS011;5974;42.710;27.258;2023-11-22T14:20:32;7.33;;;6.73;;
12348;SDS011;5974;42.710;27.258;2023-11-22T14:23:00;6.87;;;6.27;;
12348;SDS011;5974;42.710;27.258;2023-11-22T14:25:26;6.77;;;6.27;;
12348;SDS011;5974;42.710;27.258;2023-11-22T14:27:54;6.80;;;6.20;;
12348;SDS011;5974;42.710;27.258;2023-11-22T14:30:22;6.00;;;5.50;;
12348;SDS011;5974;42.710;27.258;2023-11-22T14:32:53;6.60;;;6.00;;
12348;SDS011;5974;42.710;27.258;2023-11-22T14:35:20;6.17;;;5.67;;
12348;SDS011;5974;42.710;27.258;2023-11-22T14:37:48;5.70;;;5.30;;
12348;SDS011;5974;42.710;27.258;2023-11-22T14:40:14;5.73;;;5.23;;